createdAt,value
2019-04-26T00:00:56.247Z,98310.91
2019-04-26T00:03:26.333Z,98301.31
2019-04-26T00:05:55.020Z,98291.19
2019-04-26T00:08:23.425Z,98284.04
2019-04-26T00:10:59.496Z,98285.94
2019-04-26T00:13:45.437Z,98297.31
2019-04-26T00:16:15.502Z,98304.88
2019-04-26T00:18:44.109Z,98314.51
2019-04-26T00:21:12.524Z,98332.73
2019-04-26T00:23:41.077Z,98343.88
2019-04-26T00:26:09.858Z,98352.73
2019-04-26T00:28:38.716Z,98355.16
2019-04-26T00:31:07.179Z,98360.03
2019-04-26T00:33:35.602Z,98357.63
2019-04-26T00:36:04.079Z,98354.37
2019-04-26T00:38:32.507Z,98341.80
2019-04-26T00:41:01.055Z,98338.31
2019-04-26T00:43:29.739Z,98337.01
2019-04-26T00:46:00.796Z,98344.34
2019-04-26T00:48:31.650Z,98350.33
2019-04-26T00:51:02.512Z,98371.30
2019-04-26T00:53:34.019Z,98371.16
2019-04-26T00:56:03.991Z,98366.67
2019-04-26T00:58:33.773Z,98375.64
2019-04-26T01:01:02.584Z,98385.41
2019-04-26T01:03:31.020Z,98377.80
2019-04-26T01:06:01.081Z,98381.50
2019-04-26T01:08:29.513Z,98374.20
2019-04-26T01:10:58.060Z,98373.84
2019-04-26T01:13:27.231Z,98386.70
2019-04-26T01:15:55.666Z,98388.15
2019-04-26T01:18:24.467Z,98394.97
2019-04-26T01:20:55.979Z,98394.73
2019-04-26T01:23:27.447Z,98392.20
2019-04-26T01:26:07.418Z,98394.87
2019-04-26T01:28:44.135Z,98393.36
2019-04-26T01:31:13.616Z,98388.80
2019-04-26T01:33:44.601Z,98405.31
2019-04-26T01:36:13.854Z,98404.28
2019-04-26T01:38:44.948Z,98407.16
2019-04-26T01:41:18.029Z,98407.25
2019-04-26T01:43:49.609Z,98412.22
2019-04-26T01:46:24.897Z,98395.75
2019-04-26T01:49:01.986Z,98417.29
2019-04-26T01:51:36.261Z,98429.27
2019-04-26T01:54:05.216Z,98422.20
2019-04-26T01:56:36.254Z,98428.05
2019-04-26T01:59:07.231Z,98448.33
2019-04-26T02:01:54.010Z,98443.03
2019-04-26T02:04:24.181Z,98427.58
2019-04-26T02:06:52.597Z,98417.33
2019-04-26T02:09:22.882Z,98425.58
2019-04-26T02:11:51.347Z,98434.72
2019-04-26T02:14:20.365Z,98427.58
2019-04-26T02:16:49.002Z,98422.05
2019-04-26T02:19:17.492Z,98415.89
2019-04-26T02:21:47.756Z,98409.32
2019-04-26T02:24:20.562Z,98408.28
2019-04-26T02:26:50.190Z,98405.55
2019-04-26T02:29:26.625Z,98412.30
2019-04-26T02:31:58.332Z,98422.99
2019-04-26T02:34:29.390Z,98413.31
2019-04-26T02:37:00.997Z,98411.70
2019-04-26T02:39:37.944Z,98405.88
2019-04-26T02:42:12.299Z,98407.18
2019-04-26T02:44:57.243Z,98419.68
2019-04-26T02:47:37.307Z,98421.97
2019-04-26T02:50:19.235Z,98431.90
2019-04-26T02:53:02.719Z,98430.99
2019-04-26T02:55:42.432Z,98435.11
2019-04-26T02:58:12.135Z,98440.63
2019-04-26T03:00:41.097Z,98451.61
2019-04-26T03:03:11.918Z,98443.28
2019-04-26T03:05:43.006Z,98444.70
2019-04-26T03:08:14.508Z,98444.58
2019-04-26T03:10:45.489Z,98443.28
2019-04-26T03:13:18.616Z,98439.22
2019-04-26T03:15:57.534Z,98439.60
2019-04-26T03:18:35.182Z,98442.55
2019-04-26T03:21:06.400Z,98434.36
2019-04-26T03:23:59.554Z,98422.88
2019-04-26T03:26:35.617Z,98422.31
2019-04-26T03:29:25.040Z,98425.36
2019-04-26T03:31:56.507Z,98428.02
2019-04-26T03:34:55.163Z,98423.45
2019-04-26T03:37:44.563Z,98441.28
2019-04-26T03:40:37.911Z,98457.56
2019-04-26T03:43:26.244Z,98464.28
2019-04-26T03:46:22.041Z,98470.61
2019-04-26T03:48:55.966Z,98463.95
2019-04-26T03:51:30.145Z,98479.55
2019-04-26T03:54:22.397Z,98485.38
2019-04-26T03:56:55.504Z,98490.58
2019-04-26T03:59:31.391Z,98490.76
2019-04-26T04:02:04.517Z,98487.59
2019-04-26T04:04:46.833Z,98482.72
2019-04-26T04:07:18.371Z,98487.09
2019-04-26T04:09:49.845Z,98494.89
2019-04-26T04:12:30.191Z,98489.52
2019-04-26T04:15:26.068Z,98499.17
2019-04-26T04:18:07.759Z,98492.23
2019-04-26T04:20:55.847Z,98489.75
2019-04-26T04:23:32.953Z,98492.91
2019-04-26T04:26:04.655Z,98484.70
2019-04-26T04:29:06.023Z,98485.67
2019-04-26T04:31:49.535Z,98492.81
2019-04-26T04:34:32.956Z,98493.97
2019-04-26T04:37:04.395Z,98498.38
2019-04-26T04:39:48.558Z,98492.55
2019-04-26T04:42:34.566Z,98496.45
2019-04-26T04:45:44.410Z,98503.69
2019-04-26T04:48:20.288Z,98519.39
2019-04-26T04:50:54.280Z,98525.77
2019-04-26T04:53:43.465Z,98531.58
2019-04-26T04:56:29.935Z,98530.03
2019-04-26T04:59:10.188Z,98498.42
2019-04-26T05:01:55.304Z,98506.35
2019-04-26T05:04:32.813Z,98520.86
2019-04-26T05:07:25.222Z,98529.16
2019-04-26T05:10:02.715Z,98524.92
2019-04-26T05:12:58.180Z,98507.19
2019-04-26T05:15:51.292Z,98523.66
2019-04-26T05:18:46.543Z,98524.73
2019-04-26T05:21:37.495Z,98528.74
2019-04-26T05:24:18.160Z,98533.44
2019-04-26T05:27:14.839Z,98530.05
2019-04-26T05:29:47.960Z,98518.75
2019-04-26T05:32:40.457Z,98531.92
2019-04-26T05:35:19.649Z,98533.68
2019-04-26T05:37:53.889Z,98541.95
2019-04-26T05:40:44.870Z,98553.51
2019-04-26T05:43:35.511Z,98564.72
2019-04-26T05:46:26.106Z,98570.55
2019-04-26T05:49:29.300Z,98561.31
2019-04-26T05:52:27.520Z,98550.70
2019-04-26T05:55:24.294Z,98544.70
2019-04-26T05:58:03.031Z,98546.75
2019-04-26T06:00:48.043Z,98549.90
2019-04-26T06:03:45.765Z,98548.11
2019-04-26T06:06:30.134Z,98550.52
2019-04-26T06:09:31.455Z,98549.00
2019-04-26T06:12:22.522Z,98543.33
2019-04-26T06:15:19.322Z,98551.95
2019-04-26T06:18:19.723Z,98560.84
2019-04-26T06:20:54.106Z,98568.02
2019-04-26T06:23:53.923Z,98582.39
2019-04-26T06:26:38.936Z,98576.17
2019-04-26T06:29:29.099Z,98585.53
2019-04-26T06:32:18.953Z,98604.38
2019-04-26T06:34:59.380Z,98616.13
2019-04-26T06:37:59.915Z,98614.55
2019-04-26T06:40:57.959Z,98611.97
2019-04-26T06:43:31.305Z,98600.00
2019-04-26T06:46:16.146Z,98612.50
2019-04-26T06:49:29.579Z,98612.14
2019-04-26T06:52:12.821Z,98614.62
2019-04-26T06:55:00.046Z,98595.78
2019-04-26T06:58:17.170Z,98593.05
2019-04-26T07:01:06.670Z,98587.58
2019-04-26T07:03:44.332Z,98594.95
2019-04-26T07:06:18.448Z,98603.08
2019-04-26T07:08:57.538Z,98606.25
2019-04-26T07:11:54.038Z,98607.78
2019-04-26T07:14:31.629Z,98622.27
2019-04-26T07:17:08.706Z,98628.98
2019-04-26T07:20:09.838Z,98630.53
2019-04-26T07:23:19.418Z,98646.80
2019-04-26T07:26:01.720Z,98648.70
2019-04-26T07:28:48.798Z,98640.88
2019-04-26T07:31:32.644Z,98651.37
2019-04-26T07:34:25.428Z,98645.88
2019-04-26T07:37:30.436Z,98645.88
2019-04-26T07:40:12.530Z,98645.73
2019-04-26T07:42:48.612Z,98654.98
2019-04-26T07:45:47.764Z,98655.55
2019-04-26T07:48:22.314Z,98660.48
2019-04-26T07:50:56.721Z,98664.23
2019-04-26T07:53:30.991Z,98660.84
2019-04-26T07:56:11.485Z,98661.72
2019-04-26T07:58:58.768Z,98668.91
2019-04-26T08:01:51.543Z,98672.89
2019-04-26T08:04:29.564Z,98671.58
2019-04-26T08:07:10.344Z,98667.72
2019-04-26T08:09:41.917Z,98671.50
2019-04-26T08:12:14.172Z,98678.73
2019-04-26T08:14:55.967Z,98685.05
2019-04-26T08:17:43.480Z,98677.86
2019-04-26T08:20:33.133Z,98672.98
2019-04-26T08:23:08.656Z,98676.53
2019-04-26T08:25:37.940Z,98673.80
2019-04-26T08:28:09.983Z,98685.24
2019-04-26T08:30:44.777Z,98686.94
2019-04-26T08:33:16.131Z,98689.86
2019-04-26T08:35:49.063Z,98692.69
2019-04-26T08:38:22.100Z,98697.67
2019-04-26T08:40:48.423Z,98695.42
2019-04-26T08:43:37.390Z,98696.59
2019-04-26T08:46:12.814Z,98697.39
2019-04-26T08:49:02.139Z,98712.86
2019-04-26T08:51:32.994Z,98715.14
2019-04-26T08:54:05.475Z,98719.90
2019-04-26T08:56:42.547Z,98728.70
2019-04-26T08:59:20.145Z,98719.73
2019-04-26T09:01:55.489Z,98722.01
2019-04-26T09:04:30.475Z,98725.34
2019-04-26T09:07:09.473Z,98719.86
2019-04-26T09:09:41.104Z,98714.64
2019-04-26T09:12:22.565Z,98717.25
2019-04-26T09:14:45.915Z,98714.27
2019-04-26T09:17:14.309Z,98716.83
2019-04-26T09:19:42.865Z,98711.80
2019-04-26T09:22:13.609Z,98714.34
2019-04-26T09:24:59.388Z,98705.53
2019-04-26T09:27:31.308Z,98716.75
2019-04-26T09:30:05.090Z,98712.63
2019-04-26T09:32:48.433Z,98712.52
2019-04-26T09:35:17.412Z,98712.28
2019-04-26T09:37:45.976Z,98721.52
2019-04-26T09:40:21.610Z,98717.76
2019-04-26T09:42:49.297Z,98729.07
2019-04-26T09:45:34.639Z,98730.11
2019-04-26T09:48:16.817Z,98730.11
2019-04-26T09:50:46.898Z,98738.13
2019-04-26T09:53:15.800Z,98732.19
2019-04-26T09:55:44.260Z,98737.17
2019-04-26T09:58:13.316Z,98747.44
2019-04-26T10:00:44.172Z,98745.45
2019-04-26T10:03:13.636Z,98752.19
2019-04-26T10:05:42.120Z,98762.92
2019-04-26T10:08:13.140Z,98758.91
2019-04-26T10:10:40.812Z,98761.36
2019-04-26T10:13:10.834Z,98768.61
2019-04-26T10:16:02.598Z,98768.61
2019-04-26T10:18:29.146Z,98772.27
2019-04-26T10:20:57.642Z,98773.56
2019-04-26T10:23:26.009Z,98772.21
2019-04-26T10:25:54.409Z,98764.20
2019-04-26T10:28:23.040Z,98765.91
2019-04-26T10:30:51.434Z,98766.93
2019-04-26T10:33:19.872Z,98773.44
2019-04-26T10:35:48.414Z,98766.04
2019-04-26T10:38:19.417Z,98766.41
2019-04-26T10:40:46.987Z,98757.17
2019-04-26T10:43:15.542Z,98752.77
2019-04-26T10:45:45.964Z,98744.00
2019-04-26T10:48:15.527Z,98736.63
2019-04-26T10:50:44.027Z,98727.64
2019-04-26T10:53:14.069Z,98731.55
2019-04-26T10:55:46.418Z,98739.88
2019-04-26T10:58:20.275Z,98755.08
2019-04-26T11:00:52.767Z,98752.14
2019-04-26T11:03:21.109Z,98750.19
2019-04-26T11:05:53.781Z,98741.34
2019-04-26T11:08:19.849Z,98739.70
2019-04-26T11:10:49.073Z,98744.85
2019-04-26T11:13:17.547Z,98746.47
2019-04-26T11:15:46.606Z,98745.67
2019-04-26T11:18:15.007Z,98736.45
2019-04-26T11:20:45.695Z,98739.70
2019-04-26T11:23:14.339Z,98735.23
2019-04-26T11:25:42.726Z,98739.64
2019-04-26T11:28:11.197Z,98740.26
2019-04-26T11:30:39.689Z,98753.32
2019-04-26T11:33:11.053Z,98749.08
2019-04-26T11:35:38.367Z,98765.95
2019-04-26T11:38:06.850Z,98754.62
2019-04-26T11:40:35.332Z,98750.99
2019-04-26T11:43:03.937Z,98751.56
2019-04-26T11:45:32.377Z,98749.69
2019-04-26T11:48:03.193Z,98744.12
2019-04-26T11:50:30.990Z,98746.25
2019-04-26T11:52:59.402Z,98746.08
2019-04-26T11:55:29.803Z,98743.72
2019-04-26T11:57:58.117Z,98749.63
2019-04-26T12:00:30.813Z,98746.24
2019-04-26T12:02:59.218Z,98748.78
2019-04-26T12:05:37.826Z,98754.47
2019-04-26T12:08:24.093Z,98742.59
2019-04-26T12:10:52.625Z,98743.03
2019-04-26T12:13:24.980Z,98729.98
2019-04-26T12:15:51.915Z,98729.33
2019-04-26T12:18:20.457Z,98724.94
2019-04-26T12:20:48.905Z,98727.62
2019-04-26T12:23:20.774Z,98728.05
2019-04-26T12:25:48.264Z,98724.45
2019-04-26T12:28:16.758Z,98716.53
2019-04-26T12:30:45.154Z,98718.48
2019-04-26T12:33:14.536Z,98727.81
2019-04-26T12:35:42.976Z,98723.99
2019-04-26T12:38:11.456Z,98726.04
2019-04-26T12:40:42.282Z,98719.10
2019-04-26T12:43:09.968Z,98728.66
2019-04-26T12:45:40.070Z,98729.33
2019-04-26T12:48:12.351Z,98732.61
2019-04-26T12:50:40.309Z,98740.45
2019-04-26T12:53:08.801Z,98742.72
2019-04-26T12:55:37.262Z,98736.36
2019-04-26T12:58:05.774Z,98729.70
2019-04-26T13:00:37.627Z,98734.95
2019-04-26T13:03:06.034Z,98741.33
2019-04-26T13:05:34.488Z,98741.27
2019-04-26T13:08:02.993Z,98740.16
2019-04-26T13:10:44.760Z,98743.00
2019-04-26T13:13:13.796Z,98744.95
2019-04-26T13:15:54.244Z,98743.44
2019-04-26T13:18:22.785Z,98740.88
2019-04-26T13:20:51.292Z,98752.68
2019-04-26T13:23:19.678Z,98753.03
2019-04-26T13:25:48.089Z,98744.48
2019-04-26T13:28:20.351Z,98749.26
2019-04-26T13:30:46.633Z,98745.92
2019-04-26T13:33:15.056Z,98746.28
2019-04-26T13:35:46.560Z,98749.24
2019-04-26T13:38:13.732Z,98746.64
2019-04-26T13:40:42.334Z,98742.64
2019-04-26T13:43:10.743Z,98744.02
2019-04-26T13:45:53.131Z,98747.02
2019-04-26T13:48:31.941Z,98743.95
2019-04-26T13:51:20.591Z,98740.68
2019-04-26T13:53:49.007Z,98740.62
2019-04-26T13:56:17.466Z,98743.36
2019-04-26T13:58:45.967Z,98749.98
2019-04-26T14:01:18.677Z,98762.28
2019-04-26T14:03:45.652Z,98759.16
2019-04-26T14:06:14.044Z,98760.78
2019-04-26T14:08:42.501Z,98764.63
2019-04-26T14:11:10.972Z,98762.25
2019-04-26T14:13:39.415Z,98762.25
2019-04-26T14:16:08.291Z,98769.02
2019-04-26T14:18:38.985Z,98763.30
2019-04-26T14:21:06.999Z,98759.92
2019-04-26T14:23:49.451Z,98756.78
2019-04-26T14:26:23.041Z,98756.78
2019-04-26T14:28:54.301Z,98762.03
2019-04-26T14:31:21.595Z,98754.39
2019-04-26T14:33:49.991Z,98756.66
2019-04-26T14:36:18.747Z,98764.98
2019-04-26T14:38:49.464Z,98763.10
2019-04-26T14:41:22.713Z,98757.47
2019-04-26T14:43:48.064Z,98750.46
2019-04-26T14:46:16.582Z,98751.11
2019-04-26T14:49:00.313Z,98753.54
2019-04-26T14:51:16.822Z,98748.80
2019-04-26T14:53:46.093Z,98746.48
2019-04-26T14:56:14.553Z,98739.16
2019-04-26T14:58:42.964Z,98743.91
2019-04-26T15:01:19.006Z,98743.43
2019-04-26T15:03:57.132Z,98742.72
2019-04-26T15:06:23.822Z,98744.88
2019-04-26T15:08:53.103Z,98739.97
2019-04-26T15:11:22.904Z,98732.94
2019-04-26T15:13:51.565Z,98722.17
2019-04-26T15:16:22.187Z,98714.66
2019-04-26T15:18:50.246Z,98721.41
2019-04-26T15:21:19.067Z,98716.20
2019-04-26T15:23:47.485Z,98721.37
2019-04-26T15:26:18.446Z,98729.09
2019-04-26T15:28:50.520Z,98722.58
2019-04-26T15:31:17.325Z,98726.78
2019-04-26T15:33:48.810Z,98720.91
2019-04-26T15:36:16.891Z,98722.30
2019-04-26T15:38:47.796Z,98729.14
2019-04-26T15:41:34.168Z,98733.10
2019-04-26T15:44:24.868Z,98731.97
2019-04-26T15:47:07.755Z,98731.72
2019-04-26T15:49:46.313Z,98731.49
2019-04-26T15:52:14.759Z,98728.42
2019-04-26T15:54:43.223Z,98732.84
2019-04-26T15:57:12.295Z,98721.44
2019-04-26T15:59:40.808Z,98732.27
2019-04-26T16:02:09.373Z,98735.06
2019-04-26T16:04:37.885Z,98733.05
2019-04-26T16:07:06.536Z,98738.88
2019-04-26T16:09:34.953Z,98740.16
2019-04-26T16:12:03.804Z,98744.23
2019-04-26T16:14:36.492Z,98742.50
2019-04-26T16:17:06.391Z,98744.26
2019-04-26T16:19:32.710Z,98740.29
2019-04-26T16:22:02.851Z,98742.84
2019-04-26T16:24:34.124Z,98735.91
2019-04-26T16:27:02.766Z,98740.20
2019-04-26T16:29:32.972Z,98740.09
2019-04-26T16:32:22.063Z,98733.73
2019-04-26T16:34:52.471Z,98729.06
2019-04-26T16:37:22.083Z,98735.33
2019-04-26T16:39:50.864Z,98744.64
2019-04-26T16:42:19.254Z,98738.97
2019-04-26T16:44:47.692Z,98738.97
2019-04-26T16:47:16.465Z,98749.02
2019-04-26T16:49:46.600Z,98758.03
2019-04-26T16:52:15.089Z,98766.98
2019-04-26T16:54:43.576Z,98770.78
2019-04-26T16:57:12.460Z,98772.17
2019-04-26T16:59:48.992Z,98767.23
2019-04-26T17:02:13.378Z,98766.47
2019-04-26T17:04:43.540Z,98765.23
2019-04-26T17:07:13.288Z,98764.03
2019-04-26T17:09:55.535Z,98765.44
2019-04-26T17:12:14.977Z,98762.95
2019-04-26T17:14:47.522Z,98759.78
2019-04-26T17:17:14.152Z,98760.39
2019-04-26T17:19:43.247Z,98759.86
2019-04-26T17:22:19.383Z,98761.02
2019-04-26T17:24:58.462Z,98760.93
2019-04-26T17:27:26.884Z,98758.45
2019-04-26T17:29:55.423Z,98761.02
2019-04-26T17:32:23.930Z,98764.92
2019-04-26T17:34:54.559Z,98757.44
2019-04-26T17:37:26.313Z,98759.37
2019-04-26T17:39:55.417Z,98765.88
2019-04-26T17:42:25.323Z,98756.98
2019-04-26T17:44:53.242Z,98755.84
2019-04-26T17:47:21.655Z,98761.73
2019-04-26T17:49:52.276Z,98760.02
2019-04-26T17:52:20.446Z,98759.66
2019-04-26T17:54:49.753Z,98765.06
2019-04-26T17:57:32.023Z,98771.47
2019-04-26T17:59:51.464Z,98768.93
2019-04-26T18:02:38.648Z,98774.32
2019-04-26T18:04:58.888Z,98786.03
2019-04-26T18:07:37.518Z,98783.77
2019-04-26T18:09:50.682Z,98784.14
2019-04-26T18:12:20.694Z,98786.86
2019-04-26T18:14:49.132Z,98797.58
2019-04-26T18:17:27.795Z,98806.36
2019-04-26T18:20:00.704Z,98812.45
2019-04-26T18:22:34.565Z,98815.47
2019-04-26T18:25:05.783Z,98832.45
2019-04-26T18:27:35.760Z,98835.84
2019-04-26T18:30:08.324Z,98822.16
2019-04-26T18:32:33.984Z,98819.20
2019-04-26T18:35:03.063Z,98820.97
2019-04-26T18:37:31.508Z,98832.39
2019-04-26T18:40:02.015Z,98841.75
2019-04-26T18:42:30.113Z,98843.63
2019-04-26T18:44:58.497Z,98834.61
2019-04-26T18:47:28.586Z,98842.83
2019-04-26T18:49:58.195Z,98844.13
2019-04-26T18:52:28.318Z,98840.38
2019-04-26T18:54:58.367Z,98842.18
2019-04-26T18:57:26.837Z,98839.38
2019-04-26T18:59:55.387Z,98845.02
2019-04-26T19:02:25.444Z,98840.17
2019-04-26T19:04:53.853Z,98840.63
2019-04-26T19:07:31.860Z,98849.53
2019-04-26T19:10:04.643Z,98853.59
2019-04-26T19:12:26.821Z,98856.47
2019-04-26T19:15:03.149Z,98860.89
2019-04-26T19:17:34.892Z,98860.94
2019-04-26T19:20:24.950Z,98861.20
2019-04-26T19:23:02.677Z,98859.79
2019-04-26T19:25:35.659Z,98870.52
2019-04-26T19:28:04.469Z,98866.41
2019-04-26T19:30:31.905Z,98864.47
2019-04-26T19:33:01.929Z,98867.02
2019-04-26T19:35:30.631Z,98870.03
2019-04-26T19:37:59.096Z,98873.94
2019-04-26T19:40:27.724Z,98869.12
2019-04-26T19:42:57.588Z,98866.51
2019-04-26T19:45:39.584Z,98876.05
2019-04-26T19:48:12.480Z,98872.20
2019-04-26T19:50:52.708Z,98877.80
2019-04-26T19:53:24.734Z,98883.75
2019-04-26T19:55:55.012Z,98884.52
2019-04-26T19:58:25.228Z,98882.29
2019-04-26T20:00:53.848Z,98872.13
2019-04-26T20:03:22.334Z,98867.90
2019-04-26T20:05:52.799Z,98876.55
2019-04-26T20:08:21.528Z,98880.55
2019-04-26T20:10:52.131Z,98877.72
2019-04-26T20:13:22.023Z,98875.77
2019-04-26T20:15:52.730Z,98876.26
2019-04-26T20:18:21.395Z,98877.56
2019-04-26T20:20:49.963Z,98878.66
2019-04-26T20:23:19.708Z,98875.57
2019-04-26T20:25:48.160Z,98877.59
2019-04-26T20:28:16.669Z,98881.20
2019-04-26T20:30:51.487Z,98886.16
2019-04-26T20:33:20.076Z,98877.54
2019-04-26T20:35:51.507Z,98877.46
2019-04-26T20:38:20.054Z,98878.05
2019-04-26T20:40:48.970Z,98880.58
2019-04-26T20:43:24.362Z,98871.02
2019-04-26T20:46:07.825Z,98871.11
2019-04-26T20:48:18.586Z,98875.68
2019-04-26T20:50:47.236Z,98878.23
2019-04-26T20:53:15.745Z,98879.95
2019-04-26T20:55:47.013Z,98877.66
2019-04-26T20:58:14.395Z,98881.84
2019-04-26T21:00:53.793Z,98879.30
2019-04-26T21:03:22.746Z,98875.91
2019-04-26T21:05:46.511Z,98881.02
2019-04-26T21:08:13.836Z,98879.23
2019-04-26T21:10:42.354Z,98871.33
2019-04-26T21:13:12.184Z,98872.49
2019-04-26T21:15:53.488Z,98871.75
2019-04-26T21:18:12.356Z,98864.50
2019-04-26T21:20:42.489Z,98867.48
2019-04-26T21:23:13.242Z,98864.27
2019-04-26T21:25:42.822Z,98868.41
2019-04-26T21:28:25.023Z,98868.39
2019-04-26T21:30:55.100Z,98868.14
2019-04-26T21:33:28.741Z,98867.28
2019-04-26T21:36:01.938Z,98867.28
2019-04-26T21:38:40.432Z,98867.86
2019-04-26T21:41:19.151Z,98870.35
2019-04-26T21:43:48.660Z,98883.04
2019-04-26T21:46:19.191Z,98880.69
2019-04-26T21:48:49.031Z,98882.44
2019-04-26T21:51:17.436Z,98882.35
2019-04-26T21:53:45.955Z,98883.67
2019-04-26T21:56:14.803Z,98875.52
2019-04-26T21:58:43.935Z,98879.33
2019-04-26T22:01:18.962Z,98878.50
2019-04-26T22:03:54.301Z,98878.71
2019-04-26T22:06:19.798Z,98876.43
2019-04-26T22:08:55.653Z,98878.36
2019-04-26T22:11:24.106Z,98879.95
2019-04-26T22:13:54.243Z,98886.41
2019-04-26T22:16:39.425Z,98893.28
2019-04-26T22:19:09.489Z,98896.62
2019-04-26T22:21:59.348Z,98893.39
2019-04-26T22:24:27.980Z,98884.78
2019-04-26T22:26:56.465Z,98884.01
2019-04-26T22:29:24.872Z,98875.36
2019-04-26T22:31:54.793Z,98882.11
2019-04-26T22:34:23.599Z,98878.08
2019-04-26T22:36:53.615Z,98877.26
2019-04-26T22:39:22.789Z,98879.10
2019-04-26T22:41:53.384Z,98883.77
2019-04-26T22:44:34.049Z,98878.41
2019-04-26T22:47:06.945Z,98876.47
2019-04-26T22:49:41.845Z,98879.91
2019-04-26T22:52:06.325Z,98874.66
2019-04-26T22:54:37.680Z,98875.48
2019-04-26T22:57:08.175Z,98876.16
2019-04-26T22:59:38.198Z,98873.88
2019-04-26T23:02:08.085Z,98874.97
2019-04-26T23:04:36.541Z,98876.38
2019-04-26T23:07:06.852Z,98878.90
2019-04-26T23:09:35.254Z,98870.73
2019-04-26T23:12:08.256Z,98871.09
2019-04-26T23:14:38.344Z,98878.78
2019-04-26T23:17:14.361Z,98875.84
2019-04-26T23:19:44.782Z,98870.81
2019-04-26T23:22:13.390Z,98872.63
2019-04-26T23:24:42.807Z,98869.09
2019-04-26T23:27:14.826Z,98879.53
2019-04-26T23:29:43.570Z,98870.81
2019-04-26T23:32:18.238Z,98871.33
2019-04-26T23:34:42.285Z,98875.69
2019-04-26T23:37:10.688Z,98870.34
2019-04-26T23:39:44.481Z,98880.98
2019-04-26T23:42:12.323Z,98871.13
2019-04-26T23:44:40.235Z,98874.04
2019-04-26T23:47:20.935Z,98868.30
2019-04-26T23:49:38.865Z,98868.34
2019-04-26T23:52:07.281Z,98873.17
2019-04-26T23:54:35.994Z,98873.20
2019-04-26T23:57:04.540Z,98874.67
2019-04-26T23:59:33.752Z,98881.06
